Terminal Aerodrome Forecast
Issued by NWS Portland, OR

Home | Current Version | Previous Version | Text Only | Print | Product List | Glossary On
Versions: 1 2 3 4 5 6 7 8 9 10 11 12 13 14 15 16 17 18 19 20 21 22 23 24 25 26 27 28 29 30 31 32
000
FTUS46 KPQR 282320
TAFAST
TAF
KAST 282320Z 2900/2924 05005KT P6SM SCT025 SCT120
     FM290300 11003KT 6SM BR FEW002 SCT025 BKN100
     FM291600 10003KT P6SM SCT100=

USA.gov is the U.S. government's official web portal to all federal, state and local government web resources and services.